Time;durP1;ratioP1;P1;durP2;ratioP2;P2;SDS_P1;SDS_P2;PMS_P1;PMS_P2;Temp;Humidity;BMP_temperature;BMP_pressure;BME280_temperature;BME280_humidity;BME280_pressure;Samples;Min_cycle;Max_cycle;Signal;HPM_P1;HPM_P2
2021/01/26 00:00:32;;;;;;;17.63;8.10;;;24.30;70.00;;;;;;5034054;28;20488;-61
2021/01/26 00:02:58;;;;;;;14.83;8.07;;;24.30;70.00;;;;;;5034076;28;20446;-61
2021/01/26 00:05:24;;;;;;;11.40;7.50;;;24.30;70.00;;;;;;5034266;28;20453;-61
2021/01/26 00:07:51;;;;;;;15.10;6.50;;;24.30;69.90;;;;;;5034239;28;20808;-61
2021/01/26 00:10:17;;;;;;;11.67;6.73;;;24.30;69.90;;;;;;5033890;28;20461;-61
2021/01/26 00:12:44;;;;;;;10.50;7.40;;;24.30;70.00;;;;;;5034094;28;20449;-61
2021/01/26 00:15:12;;;;;;;9.10;6.33;;;24.30;69.90;;;;;;5034160;28;20838;-61
2021/01/26 00:17:38;;;;;;;11.73;7.13;;;24.30;70.00;;;;;;5034018;28;20839;-61
2021/01/26 00:20:07;;;;;;;12.10;7.17;;;24.20;69.80;;;;;;5033729;28;20496;-61
2021/01/26 00:22:33;;;;;;;13.50;7.03;;;24.30;70.00;;;;;;5034076;28;20915;-61
2021/01/26 00:24:59;;;;;;;10.23;6.57;;;24.40;70.10;;;;;;5033951;28;20504;-61
2021/01/26 00:27:25;;;;;;;14.80;7.40;;;24.20;70.60;;;;;;5033879;28;20442;-61
2021/01/26 00:29:53;;;;;;;13.47;7.57;;;24.20;69.80;;;;;;5033623;28;20441;-61
2021/01/26 00:32:19;;;;;;;11.00;7.00;;;24.20;69.80;;;;;;5034638;28;20445;-61
2021/01/26 00:34:45;;;;;;;14.40;6.67;;;24.20;69.80;;;;;;5033833;28;20443;-61
2021/01/26 00:37:11;;;;;;;7.83;5.90;;;24.20;69.70;;;;;;5033822;28;20809;-61
2021/01/26 00:39:38;;;;;;;10.00;6.57;;;24.20;69.80;;;;;;5034492;28;20512;-61
2021/01/26 00:42:05;;;;;;;9.60;6.17;;;24.20;69.80;;;;;;5033410;28;20453;-61
2021/01/26 00:44:31;;;;;;;9.60;6.60;;;24.20;69.70;;;;;;5033746;28;20448;-61
2021/01/26 00:46:58;;;;;;;9.43;6.30;;;24.20;69.70;;;;;;5033609;28;20506;-61
2021/01/26 00:49:24;;;;;;;8.63;5.93;;;24.20;69.80;;;;;;5033615;28;20772;-61
2021/01/26 00:51:51;;;;;;;9.80;6.20;;;24.20;69.80;;;;;;5033651;28;20445;-62
2021/01/26 00:54:17;;;;;;;9.13;5.53;;;24.20;69.70;;;;;;5033637;28;20445;-61
2021/01/26 00:56:43;;;;;;;9.13;6.47;;;24.20;69.70;;;;;;5033603;28;20440;-61
2021/01/26 00:59:09;;;;;;;7.70;5.30;;;24.20;69.80;;;;;;5033507;28;20488;-61
2021/01/26 01:01:36;;;;;;;10.80;6.87;;;24.20;69.70;;;;;;5033482;28;20448;-61
2021/01/26 01:04:03;;;;;;;8.30;6.40;;;24.20;69.80;;;;;;5033509;28;20451;-60
2021/01/26 01:09:51;;;;;;;9.07;6.40;;;24.20;69.60;;;;;;5033507;28;20536;-61
2021/01/26 01:12:18;;;;;;;9.30;5.83;;;24.20;69.80;;;;;;5033450;28;20453;-61
2021/01/26 01:14:44;;;;;;;10.17;6.20;;;24.20;69.70;;;;;;5033452;28;20439;-61
2021/01/26 01:17:10;;;;;;;11.63;6.20;;;24.20;69.70;;;;;;5033411;28;20515;-61
2021/01/26 01:19:37;;;;;;;9.00;6.33;;;24.10;69.60;;;;;;5033124;28;20489;-60
2021/01/26 01:22:04;;;;;;;9.03;5.50;;;24.10;69.60;;;;;;5033408;28;20445;-61
2021/01/26 01:24:30;;;;;;;7.40;5.77;;;24.20;69.60;;;;;;5033389;28;20448;-61
2021/01/26 01:26:56;;;;;;;9.67;5.67;;;24.20;69.70;;;;;;5033293;28;20519;-61
2021/01/26 01:29:22;;;;;;;8.70;5.93;;;24.20;69.60;;;;;;5032989;28;20450;-61
2021/01/26 01:31:48;;;;;;;8.73;5.20;;;24.20;69.60;;;;;;5033268;28;20453;-61
2021/01/26 01:34:15;;;;;;;8.17;5.33;;;24.20;69.60;;;;;;5033251;28;20446;-61
2021/01/26 01:36:42;;;;;;;8.10;6.10;;;24.20;69.60;;;;;;5033242;28;20826;-61
2021/01/26 01:39:09;;;;;;;6.30;5.13;;;24.20;69.60;;;;;;5032809;28;20475;-61
2021/01/26 01:41:37;;;;;;;6.70;5.63;;;24.10;69.60;;;;;;5033142;28;20532;-61
2021/01/26 01:44:04;;;;;;;9.80;5.67;;;24.10;69.50;;;;;;5033992;28;20448;-61
2021/01/26 01:46:35;;;;;;;8.07;5.77;;;24.10;69.50;;;;;;5032809;28;20459;-61
2021/01/26 01:49:05;;;;;;;9.63;6.40;;;24.10;69.50;;;;;;5033221;28;20752;-61
2021/01/26 01:51:35;;;;;;;8.40;5.23;;;24.10;69.50;;;;;;5033141;28;21017;-61
2021/01/26 01:54:09;;;;;;;6.77;5.80;;;24.10;69.50;;;;;;5033246;28;20800;-61
2021/01/26 01:56:39;;;;;;;7.77;5.20;;;24.10;69.40;;;;;;5033091;28;20427;-61
2021/01/26 02:27:18;;;;;;;9.50;4.90;;;24.00;69.50;;;;;;5021464;28;20550;-61
2021/01/26 02:30:10;;;;;;;5.93;4.33;;;24.00;69.60;;;;;;4955600;29;20447;-61
2021/01/26 02:39:32;;;;;;;7.33;4.50;;;24.10;69.60;;;;;;5035922;28;20471;-61
2021/01/26 02:42:16;;;;;;;6.93;4.43;;;24.00;69.50;;;;;;5035866;28;20824;-61
2021/01/26 02:44:56;;;;;;;6.53;4.37;;;24.00;69.50;;;;;;5035824;28;20520;-61
2021/01/26 02:47:32;;;;;;;6.83;4.63;;;24.10;69.60;;;;;;5035792;28;20820;-61
2021/01/26 02:50:05;;;;;;;5.67;4.10;;;24.10;69.60;;;;;;5035738;28;20788;-61
2021/01/26 02:52:37;;;;;;;6.20;4.60;;;24.10;69.60;;;;;;5035750;28;20462;-61
2021/01/26 02:55:09;;;;;;;6.30;4.67;;;24.10;69.50;;;;;;5035367;28;20520;-61
2021/01/26 02:57:43;;;;;;;7.73;4.73;;;24.10;69.50;;;;;;5035388;28;20468;-61
2021/01/26 03:00:14;;;;;;;6.97;4.53;;;24.10;69.40;;;;;;5035628;28;20857;-61
2021/01/26 03:02:45;;;;;;;5.33;3.93;;;24.10;69.40;;;;;;5035612;28;20517;-61
2021/01/26 03:05:18;;;;;;;5.63;3.67;;;24.10;69.50;;;;;;5035456;28;20524;-61
2021/01/26 03:07:49;;;;;;;5.40;4.30;;;24.10;69.50;;;;;;5035215;28;20442;-61
2021/01/26 03:10:20;;;;;;;6.53;5.13;;;24.10;69.40;;;;;;5034702;28;20916;-61
2021/01/26 03:16:36;;;;;;;4.73;3.63;;;24.10;69.30;;;;;;5035067;28;20487;-61
2021/01/26 03:19:08;;;;;;;7.83;4.43;;;24.00;69.30;;;;;;5035888;28;20468;-61
2021/01/26 03:21:36;;;;;;;4.90;4.00;;;24.20;69.60;;;;;;5035162;28;20463;-61
2021/01/26 03:24:07;;;;;;;5.20;3.47;;;24.00;69.40;;;;;;5035067;28;20446;-61
2021/01/26 03:26:36;;;;;;;4.67;3.97;;;24.00;69.30;;;;;;5034797;28;20476;-62
2021/01/26 03:29:06;;;;;;;5.97;4.27;;;24.00;69.30;;;;;;5035042;28;20442;-61
2021/01/26 03:31:37;;;;;;;5.83;3.83;;;24.00;69.40;;;;;;5034965;28;20428;-61
2021/01/26 03:34:04;;;;;;;5.57;4.17;;;24.00;69.30;;;;;;5034866;28;20478;-61
2021/01/26 03:36:30;;;;;;;3.53;3.20;;;24.00;69.30;;;;;;5034862;28;20780;-61
2021/01/26 03:39:00;;;;;;;5.30;3.60;;;24.00;69.20;;;;;;5034714;28;20440;-61
2021/01/26 03:41:26;;;;;;;5.63;3.77;;;24.00;69.30;;;;;;5034539;28;20933;-61
2021/01/26 03:43:53;;;;;;;5.27;4.53;;;24.00;69.20;;;;;;5034769;28;20444;-61
2021/01/26 03:46:44;;;;;;;5.23;3.83;;;24.00;69.30;;;;;;5034707;28;20490;-61
2021/01/26 03:49:23;;;;;;;5.20;3.50;;;24.00;69.20;;;;;;5031107;28;20474;-61
2021/01/26 03:52:09;;;;;;;4.27;3.87;;;24.00;69.20;;;;;;5034572;28;20827;-61
2021/01/26 03:54:38;;;;;;;6.60;4.00;;;24.00;69.20;;;;;;5035101;28;20803;-61
2021/01/26 03:57:19;;;;;;;4.63;3.90;;;24.00;69.20;;;;;;5034499;28;20815;-61
2021/01/26 04:00:11;;;;;;;4.57;3.40;;;24.00;69.20;;;;;;5034079;28;20482;-61
2021/01/26 04:02:50;;;;;;;5.43;3.57;;;24.10;69.30;;;;;;5034100;28;20899;-61
2021/01/26 04:05:22;;;;;;;5.20;3.90;;;24.00;69.20;;;;;;5033986;28;20436;-61
2021/01/26 04:07:55;;;;;;;4.70;3.67;;;24.00;69.20;;;;;;5034807;28;20516;-61
2021/01/26 04:10:24;;;;;;;4.20;3.80;;;24.00;69.20;;;;;;5034240;28;20443;-61
2021/01/26 04:12:56;;;;;;;4.87;3.57;;;24.00;69.20;;;;;;5034179;28;20449;-61
2021/01/26 04:15:27;;;;;;;4.73;3.63;;;24.00;69.20;;;;;;5034206;28;20432;-62
2021/01/26 04:17:53;;;;;;;3.83;3.53;;;24.00;69.20;;;;;;5034146;28;20779;-61
2021/01/26 04:20:24;;;;;;;4.27;3.67;;;24.00;69.20;;;;;;5033993;28;20495;-61
2021/01/26 04:22:54;;;;;;;4.40;3.70;;;24.00;69.20;;;;;;5033793;28;20447;-61
2021/01/26 04:25:33;;;;;;;4.87;3.60;;;24.00;69.20;;;;;;5033971;28;20445;-61
2021/01/26 04:28:01;;;;;;;4.20;3.10;;;24.00;69.10;;;;;;5033508;28;20476;-61
2021/01/26 04:30:28;;;;;;;3.87;3.40;;;24.00;69.20;;;;;;5033869;28;20452;-61
2021/01/26 04:32:56;;;;;;;5.63;3.63;;;24.00;69.20;;;;;;5033842;28;20448;-62
2021/01/26 04:35:23;;;;;;;5.80;3.80;;;24.00;69.20;;;;;;5033464;28;20455;-61
2021/01/26 04:37:49;;;;;;;3.67;3.37;;;24.00;69.10;;;;;;5033789;28;20449;-61
2021/01/26 04:40:16;;;;;;;6.80;4.17;;;24.00;69.10;;;;;;5033697;28;20491;-61
2021/01/26 04:42:43;;;;;;;7.57;3.50;;;24.00;70.00;;;;;;5033724;28;20803;-61
2021/01/26 04:45:13;;;;;;;4.17;3.77;;;24.00;69.10;;;;;;5033367;28;20943;-62
2021/01/26 04:47:47;;;;;;;3.83;2.87;;;24.00;69.10;;;;;;5033945;28;20833;-61
2021/01/26 04:50:22;;;;;;;4.10;3.70;;;24.00;69.10;;;;;;5033693;28;20490;-61
2021/01/26 04:53:19;;;;;;;3.93;3.07;;;24.00;69.10;;;;;;5033736;28;20443;-62
2021/01/26 04:55:59;;;;;;;4.70;3.33;;;24.00;69.10;;;;;;5017781;28;20823;-61
2021/01/26 05:02:05;;;;;;;4.63;3.23;;;24.00;69.00;;;;;;5033420;28;20435;-62
2021/01/26 05:04:38;;;;;;;3.63;3.13;;;24.00;69.20;;;;;;5033248;28;20444;-61
2021/01/26 05:07:11;;;;;;;4.73;3.00;;;24.00;69.30;;;;;;5033246;28;20441;-61
2021/01/26 05:09:42;;;;;;;5.40;3.60;;;24.00;69.30;;;;;;5033547;28;20443;-61
2021/01/26 05:12:11;;;;;;;3.40;2.90;;;24.00;69.20;;;;;;5033521;28;20932;-61
2021/01/26 05:14:43;;;;;;;5.00;3.70;;;24.00;69.30;;;;;;5033123;28;20457;-61
2021/01/26 05:17:18;;;;;;;3.33;3.03;;;24.00;69.10;;;;;;5033389;28;20467;-62
2021/01/26 05:19:49;;;;;;;3.20;2.90;;;24.00;69.00;;;;;;5033029;28;20490;-62
2021/01/26 05:22:23;;;;;;;5.37;3.60;;;24.00;68.90;;;;;;5033908;28;20437;-62
2021/01/26 05:24:56;;;;;;;3.50;3.20;;;24.00;68.80;;;;;;5033444;28;20432;-62
2021/01/26 05:27:22;;;;;;;3.07;2.70;;;24.00;68.70;;;;;;5032931;28;20515;-62
2021/01/26 05:29:49;;;;;;;3.73;3.10;;;24.00;68.60;;;;;;5033258;28;20825;-61
2021/01/26 05:32:15;;;;;;;3.40;2.97;;;24.10;68.80;;;;;;5033280;28;20497;-62
2021/01/26 05:34:42;;;;;;;3.40;3.10;;;24.00;68.60;;;;;;5035150;28;20440;-62
2021/01/26 05:37:12;;;;;;;4.37;3.30;;;24.10;68.80;;;;;;5037146;28;20834;-62
2021/01/26 05:39:45;;;;;;;3.83;2.77;;;24.10;68.80;;;;;;5036965;28;20982;-62
2021/01/26 05:42:13;;;;;;;3.67;3.00;;;24.10;68.70;;;;;;5036976;28;20437;-62
2021/01/26 05:44:41;;;;;;;4.97;3.37;;;24.20;68.80;;;;;;5036923;28;20451;-62
2021/01/26 05:47:30;;;;;;;3.63;2.93;;;24.10;68.70;;;;;;5036860;28;20454;-62
2021/01/26 05:49:57;;;;;;;2.80;2.60;;;24.10;68.40;;;;;;5031272;28;20888;-62
2021/01/26 05:52:32;;;;;;;3.10;2.47;;;24.10;68.70;;;;;;5036786;28;20451;-62
2021/01/26 05:54:59;;;;;;;2.83;2.63;;;24.10;68.60;;;;;;5036804;28;20432;-62
2021/01/26 05:57:28;;;;;;;3.73;2.60;;;24.10;68.60;;;;;;5036701;28;20493;-62
2021/01/26 06:00:24;;;;;;;2.57;2.37;;;24.10;68.60;;;;;;5036598;28;20549;-62
2021/01/26 06:03:08;;;;;;;3.33;2.90;;;24.10;69.20;;;;;;5036572;28;20441;-63
2021/01/26 06:05:34;;;;;;;3.53;3.20;;;24.10;68.40;;;;;;5036603;28;20488;-61
2021/01/26 06:08:14;;;;;;;3.30;2.93;;;24.10;68.60;;;;;;5036216;28;20959;-62
2021/01/26 06:10:42;;;;;;;3.50;2.57;;;24.10;68.40;;;;;;5036504;28;20428;-61
2021/01/26 06:13:09;;;;;;;3.80;2.53;;;24.10;68.60;;;;;;5036138;28;20450;-61
2021/01/26 06:15:37;;;;;;;3.93;3.33;;;24.10;68.50;;;;;;5036419;28;20432;-61
2021/01/26 06:18:16;;;;;;;5.23;2.93;;;24.10;68.50;;;;;;5036342;28;20617;-61
2021/01/26 06:20:44;;;;;;;4.40;3.10;;;24.10;68.40;;;;;;5035914;28;20484;-61
2021/01/26 06:23:20;;;;;;;3.40;2.97;;;24.10;69.30;;;;;;5035871;28;20448;-61
2021/01/26 06:25:54;;;;;;;2.93;2.63;;;24.10;68.40;;;;;;5035740;28;20520;-61
2021/01/26 06:28:32;;;;;;;4.50;3.00;;;24.10;68.40;;;;;;5036204;28;20439;-62
2021/01/26 06:31:05;;;;;;;3.10;2.80;;;24.10;68.50;;;;;;5036200;28;20826;-61
2021/01/26 06:33:47;;;;;;;4.33;3.20;;;24.10;68.50;;;;;;5036072;28;20441;-61
2021/01/26 06:36:31;;;;;;;3.67;3.27;;;24.10;68.40;;;;;;5036031;28;20827;-61
2021/01/26 06:39:10;;;;;;;3.77;2.97;;;24.10;68.50;;;;;;5035650;28;20907;-62
2021/01/26 06:41:48;;;;;;;4.17;3.50;;;24.10;68.40;;;;;;5036040;28;20439;-61
2021/01/26 06:48:06;;;;;;;4.80;2.60;;;24.20;68.50;;;;;;5035548;28;20408;-61
2021/01/26 06:50:49;;;;;;;4.80;2.90;;;24.10;68.50;;;;;;5035327;28;20463;-61
2021/01/26 06:53:26;;;;;;;3.60;2.67;;;24.10;68.50;;;;;;5035744;28;20765;-62
2021/01/26 06:56:24;;;;;;;3.70;2.90;;;24.10;68.60;;;;;;5035400;28;20432;-61
2021/01/26 06:59:20;;;;;;;2.70;2.50;;;24.20;68.50;;;;;;5035685;28;20780;-61
2021/01/26 07:02:17;;;;;;;3.53;2.37;;;24.20;68.60;;;;;;5035562;28;20487;-61
2021/01/26 07:05:09;;;;;;;2.80;2.53;;;24.20;68.60;;;;;;5035641;28;20424;-61
2021/01/26 07:07:57;;;;;;;2.83;2.43;;;24.20;68.60;;;;;;5035499;28;20458;-61
2021/01/26 07:10:38;;;;;;;3.17;2.87;;;24.20;68.60;;;;;;5035436;28;20770;-61
2021/01/26 07:13:13;;;;;;;4.27;2.73;;;24.20;68.60;;;;;;5035963;28;20436;-62
2021/01/26 07:16:27;;;;;;;6.73;2.80;;;24.20;68.80;;;;;;5034957;28;20785;-62
2021/01/26 07:19:34;;;;;;;4.73;2.93;;;24.20;68.80;;;;;;5034854;28;20907;-61
2021/01/26 07:22:30;;;;;;;7.10;2.50;;;24.20;69.20;;;;;;5035224;28;20432;-61
2021/01/26 07:25:05;;;;;;;6.50;3.43;;;24.20;69.30;;;;;;5034892;28;20440;-62
2021/01/26 07:27:52;;;;;;;11.60;3.87;;;24.20;69.80;;;;;;5034597;28;20570;-62
2021/01/26 07:30:22;;;;;;;9.93;3.67;;;24.10;70.30;;;;;;5035022;28;20465;-62
2021/01/26 07:33:01;;;;;;;18.83;5.43;;;24.10;71.10;;;;;;5034939;28;20830;-62
2021/01/26 07:35:34;;;;;;;9.40;3.30;;;24.10;71.70;;;;;;5034869;28;20842;-62
2021/01/26 07:38:06;;;;;;;18.87;3.63;;;24.10;72.00;;;;;;5034601;28;20437;-62
2021/01/26 07:40:39;;;;;;;16.97;4.27;;;24.10;72.00;;;;;;5034804;28;20480;-62
2021/01/26 07:43:17;;;;;;;13.80;3.90;;;24.10;71.60;;;;;;5034689;28;20428;-62
2021/01/26 07:45:53;;;;;;;15.57;5.57;;;24.20;71.90;;;;;;5034753;28;20482;-62
2021/01/26 07:48:27;;;;;;;12.63;4.10;;;24.10;72.40;;;;;;5034686;28;20429;-62
2021/01/26 07:50:57;;;;;;;13.73;4.30;;;24.10;72.80;;;;;;5034353;28;20428;-61
2021/01/26 07:53:31;;;;;;;10.10;3.30;;;24.10;73.10;;;;;;5034477;28;20476;-62
2021/01/26 07:56:03;;;;;;;14.23;4.40;;;24.10;73.30;;;;;;5034558;28;20433;-62
2021/01/26 07:58:29;;;;;;;12.03;4.10;;;24.10;73.50;;;;;;5033933;28;20428;-62
2021/01/26 08:00:59;;;;;;;7.57;4.00;;;24.10;73.50;;;;;;5034270;28;20492;-62
2021/01/26 08:03:27;;;;;;;8.07;4.10;;;24.10;73.80;;;;;;5034397;28;20506;-62
2021/01/26 08:05:55;;;;;;;18.40;4.30;;;24.10;73.70;;;;;;5034367;28;20493;-62
2021/01/26 08:08:25;;;;;;;9.67;4.50;;;24.10;74.10;;;;;;5034296;28;20474;-62
2021/01/26 08:11:07;;;;;;;13.90;4.20;;;24.10;74.10;;;;;;5034768;28;20439;-61
2021/01/26 08:13:35;;;;;;;9.83;3.63;;;24.10;74.00;;;;;;5033954;28;20444;-62
2021/01/26 08:16:13;;;;;;;14.90;4.20;;;24.10;74.30;;;;;;5034129;28;20467;-61
2021/01/26 08:18:40;;;;;;;13.57;3.50;;;24.10;74.30;;;;;;5034145;28;20791;-62
2021/01/26 08:21:29;;;;;;;8.50;3.70;;;24.10;74.30;;;;;;5033923;28;20888;-62
2021/01/26 08:24:12;;;;;;;13.90;4.20;;;24.00;74.30;;;;;;5034678;28;20612;-62
2021/01/26 08:26:39;;;;;;;11.07;5.10;;;24.10;74.70;;;;;;5033683;28;20472;-61
2021/01/26 08:29:06;;;;;;;17.23;5.30;;;24.10;74.70;;;;;;5033728;28;20455;-62
2021/01/26 08:31:34;;;;;;;14.10;4.37;;;24.10;74.80;;;;;;5033492;28;20947;-61
2021/01/26 08:34:40;;;;;;;28.57;4.37;;;24.10;74.90;;;;;;5033584;28;20955;-62
2021/01/26 08:37:24;;;;;;;21.00;4.87;;;24.10;74.70;;;;;;5003467;28;20441;-62
2021/01/26 08:39:52;;;;;;;15.50;4.90;;;24.10;74.80;;;;;;5032331;28;20483;-62
2021/01/26 08:43:04;;;;;;;16.13;4.37;;;24.10;75.00;;;;;;5033807;28;20542;-61
2021/01/26 08:45:53;;;;;;;21.27;5.13;;;24.10;74.90;;;;;;4998360;28;20451;-62
2021/01/26 08:48:26;;;;;;;11.67;4.70;;;24.10;74.50;;;;;;5033677;28;20451;-62
2021/01/26 08:51:11;;;;;;;14.23;4.20;;;24.10;74.60;;;;;;5033432;28;20440;-62
2021/01/26 08:53:39;;;;;;;12.70;3.83;;;24.00;74.80;;;;;;5033655;28;20428;-62
2021/01/26 08:56:33;;;;;;;11.67;4.03;;;24.00;74.90;;;;;;5033328;28;20452;-62
2021/01/26 08:59:01;;;;;;;16.13;4.43;;;24.10;75.10;;;;;;5033259;28;20936;-62
2021/01/26 09:01:53;;;;;;;23.33;5.50;;;24.00;76.00;;;;;;5033521;28;20884;-62
2021/01/26 09:04:45;;;;;;;13.93;4.80;;;24.10;75.00;;;;;;5033587;28;20790;-62
2021/01/26 09:07:26;;;;;;;15.47;4.60;;;24.10;75.30;;;;;;5033210;28;20903;-62
2021/01/26 09:09:54;;;;;;;25.37;4.60;;;24.00;75.20;;;;;;5034904;28;20472;-62
2021/01/26 09:12:23;;;;;;;21.73;4.70;;;24.00;75.20;;;;;;5037219;28;20453;-61
2021/01/26 09:14:53;;;;;;;22.17;6.10;;;24.10;75.30;;;;;;5037244;28;20951;-62
2021/01/26 09:17:27;;;;;;;15.27;4.80;;;24.00;75.30;;;;;;5037559;28;20428;-62
2021/01/26 09:19:56;;;;;;;29.87;5.80;;;24.10;75.50;;;;;;5037178;28;21089;-62
2021/01/26 09:22:25;;;;;;;11.67;4.93;;;24.10;75.50;;;;;;5037424;28;20447;-62
2021/01/26 09:24:58;;;;;;;25.30;5.23;;;24.10;75.50;;;;;;5037365;28;20451;-61
2021/01/26 09:27:28;;;;;;;27.93;5.17;;;24.10;75.80;;;;;;5036979;28;20478;-62
2021/01/26 09:30:07;;;;;;;26.13;5.53;;;24.10;75.80;;;;;;5036906;28;20926;-62
2021/01/26 09:32:33;;;;;;;22.20;5.70;;;24.10;75.80;;;;;;5036971;28;20436;-61
2021/01/26 09:35:09;;;;;;;29.23;6.40;;;24.10;75.90;;;;;;5037226;28;20444;-62
2021/01/26 09:37:35;;;;;;;25.47;6.43;;;24.10;76.00;;;;;;5037174;28;20612;-62
2021/01/26 09:40:07;;;;;;;35.53;5.33;;;24.10;75.90;;;;;;5036980;28;20573;-61
2021/01/26 09:42:33;;;;;;;51.17;7.70;;;24.10;75.90;;;;;;5037586;28;20541;-62
2021/01/26 09:45:03;;;;;;;40.10;8.57;;;24.10;75.90;;;;;;5036982;28;20438;-62
2021/01/26 09:47:30;;;;;;;36.10;7.50;;;24.10;76.00;;;;;;5037636;28;20444;-61
2021/01/26 09:50:01;;;;;;;36.80;6.73;;;24.10;75.90;;;;;;5036542;28;20452;-62
2021/01/26 09:52:28;;;;;;;43.07;6.33;;;24.10;75.90;;;;;;5036537;28;20442;-61
2021/01/26 09:55:04;;;;;;;30.90;7.10;;;24.10;75.80;;;;;;5036803;28;20490;-61
2021/01/26 09:57:31;;;;;;;26.87;6.50;;;24.10;75.80;;;;;;5036423;28;20443;-62
2021/01/26 09:59:57;;;;;;;33.57;7.97;;;24.10;76.10;;;;;;5036476;28;20478;-62
2021/01/26 10:02:26;;;;;;;36.00;7.13;;;24.10;76.00;;;;;;5037452;28;20445;-62
2021/01/26 10:04:54;;;;;;;42.47;7.07;;;24.10;75.90;;;;;;5036261;28;20452;-62
2021/01/26 10:07:22;;;;;;;38.07;7.27;;;24.10;75.90;;;;;;5036543;28;20444;-62
2021/01/26 10:09:49;;;;;;;44.53;6.83;;;24.20;75.90;;;;;;5036227;28;20957;-61
2021/01/26 10:12:22;;;;;;;58.83;7.70;;;24.10;76.10;;;;;;5037024;28;20476;-62
2021/01/26 10:15:09;;;;;;;55.23;9.67;;;24.10;76.10;;;;;;5036462;28;20436;-62
2021/01/26 10:17:46;;;;;;;36.57;8.00;;;24.10;75.90;;;;;;5036361;28;20440;-62
2021/01/26 10:20:20;;;;;;;36.07;8.10;;;24.10;75.80;;;;;;5035698;28;20570;-62
2021/01/26 10:22:46;;;;;;;36.63;7.47;;;24.00;75.80;;;;;;5036336;28;20794;-62
2021/01/26 10:25:13;;;;;;;48.93;6.97;;;24.10;75.80;;;;;;5035962;28;20452;-62
2021/01/26 10:27:39;;;;;;;42.77;7.90;;;24.10;75.90;;;;;;5035973;28;20573;-61
2021/01/26 10:30:13;;;;;;;49.23;7.30;;;24.10;76.00;;;;;;5036198;28;20811;-62
2021/01/26 10:32:43;;;;;;;67.40;10.07;;;24.10;75.90;;;;;;5036158;28;20803;-61
2021/01/26 10:35:27;;;;;;;41.53;7.47;;;24.00;75.90;;;;;;5036094;28;20438;-62
2021/01/26 10:37:53;;;;;;;40.27;7.40;;;24.10;76.00;;;;;;5035981;28;20432;-62
2021/01/26 10:40:31;;;;;;;36.53;8.00;;;24.00;75.80;;;;;;5035883;28;20548;-62
2021/01/26 10:43:02;;;;;;;43.53;8.60;;;24.10;75.90;;;;;;5035895;28;20488;-62
2021/01/26 10:45:44;;;;;;;56.57;7.87;;;24.20;76.20;;;;;;5035821;28;20428;-62
2021/01/26 10:48:22;;;;;;;34.27;7.67;;;24.10;75.90;;;;;;5035499;28;20439;-62
2021/01/26 10:50:49;;;;;;;52.57;8.37;;;24.10;76.50;;;;;;5035704;28;20431;-61
2021/01/26 10:53:31;;;;;;;65.50;8.30;;;24.10;75.90;;;;;;5035717;28;20441;-62
2021/01/26 10:55:57;;;;;;;37.20;8.00;;;24.20;77.10;;;;;;5035737;28;20435;-61
2021/01/26 10:58:23;;;;;;;38.60;8.20;;;24.10;77.60;;;;;;5035570;28;20444;-62
2021/01/26 11:00:52;;;;;;;38.37;7.97;;;24.10;77.80;;;;;;5035162;28;20540;-62
2021/01/26 11:03:19;;;;;;;35.93;7.37;;;24.10;77.80;;;;;;5035490;28;20539;-62
2021/01/26 11:05:45;;;;;;;31.73;7.13;;;24.10;77.90;;;;;;5035141;28;20962;-62
2021/01/26 11:08:11;;;;;;;39.43;7.83;;;24.20;78.90;;;;;;5036084;28;20795;-62
2021/01/26 11:10:37;;;;;;;27.13;6.10;;;24.10;78.00;;;;;;5035436;28;20440;-62
2021/01/26 11:13:04;;;;;;;31.80;6.33;;;24.10;77.60;;;;;;5035316;28;20449;-61
2021/01/26 11:15:31;;;;;;;33.23;6.77;;;24.20;78.60;;;;;;5035261;28;20513;-61
2021/01/26 11:17:57;;;;;;;24.63;6.67;;;24.20;79.30;;;;;;5035202;28;20776;-62
2021/01/26 11:26:42;;;;;;;28.63;7.57;;;24.20;80.90;;;;;;5034658;28;20471;-62
2021/01/26 11:29:08;;;;;;;28.90;7.03;;;24.20;80.80;;;;;;5034970;28;20474;-62
2021/01/26 11:31:35;;;;;;;32.80;7.33;;;24.20;80.10;;;;;;5034304;28;20446;-62
2021/01/26 11:34:01;;;;;;;28.50;6.93;;;24.20;80.40;;;;;;5034421;28;20439;-61
2021/01/26 11:36:28;;;;;;;22.40;6.97;;;24.20;80.40;;;;;;5035407;28;20446;-62
2021/01/26 11:38:54;;;;;;;26.33;6.00;;;24.20;80.30;;;;;;5034824;28;20846;-62
2021/01/26 11:41:21;;;;;;;22.10;6.50;;;24.20;80.50;;;;;;5034760;28;20493;-61
2021/01/26 11:43:47;;;;;;;35.30;7.17;;;24.20;81.00;;;;;;5034406;28;20456;-62
2021/01/26 11:46:14;;;;;;;27.27;6.17;;;24.20;81.20;;;;;;5034759;28;20819;-62
2021/01/26 11:48:42;;;;;;;30.53;6.20;;;24.20;80.90;;;;;;5034660;28;20440;-62
2021/01/26 11:51:08;;;;;;;27.63;6.93;;;24.20;80.50;;;;;;5034560;28;20448;-61
2021/01/26 11:53:35;;;;;;;23.20;5.07;;;24.20;80.80;;;;;;5034193;28;20448;-61
2021/01/26 11:56:03;;;;;;;24.30;6.17;;;24.20;80.60;;;;;;5034528;28;20521;-62
2021/01/26 11:58:29;;;;;;;19.47;6.10;;;24.20;81.90;;;;;;5034499;28;20444;-61
2021/01/26 12:00:56;;;;;;;22.27;5.87;;;24.40;82.50;;;;;;5033970;28;20493;-62
2021/01/26 12:03:22;;;;;;;16.57;5.70;;;24.20;82.30;;;;;;5034376;28;20511;-62
2021/01/26 12:05:49;;;;;;;14.93;5.10;;;24.20;82.90;;;;;;5034326;28;20445;-62
2021/01/26 12:08:15;;;;;;;13.90;4.83;;;24.30;81.60;;;;;;5035044;28;20915;-62
2021/01/26 12:10:42;;;;;;;14.03;4.00;;;24.30;80.40;;;;;;5034291;28;20490;-62
2021/01/26 12:13:10;;;;;;;20.90;5.70;;;24.30;79.80;;;;;;5034182;28;20455;-62
2021/01/26 12:15:40;;;;;;;17.67;5.10;;;24.40;81.20;;;;;;5034179;28;20909;-61
2021/01/26 12:18:07;;;;;;;18.57;4.47;;;24.30;81.20;;;;;;5033842;28;20433;-62
2021/01/26 12:20:33;;;;;;;14.27;4.87;;;24.30;80.70;;;;;;5034846;28;20963;-62
2021/01/26 12:23:01;;;;;;;21.00;5.97;;;24.30;79.60;;;;;;5034083;28;20446;-62
2021/01/26 12:25:28;;;;;;;18.30;4.80;;;24.30;82.40;;;;;;5033727;28;20449;-62
2021/01/26 12:27:56;;;;;;;16.90;4.40;;;24.30;83.90;;;;;;5033533;28;20468;-62
2021/01/26 12:30:23;;;;;;;23.50;5.77;;;24.40;83.40;;;;;;5034470;28;20932;-62
2021/01/26 12:32:50;;;;;;;14.13;5.00;;;24.40;83.50;;;;;;5033642;28;20819;-62
2021/01/26 12:35:18;;;;;;;8.43;4.60;;;24.40;84.30;;;;;;5033817;28;20449;-62
2021/01/26 12:37:45;;;;;;;13.57;5.17;;;24.40;84.80;;;;;;5033792;28;20440;-62
2021/01/26 12:40:12;;;;;;;17.60;5.23;;;24.30;84.60;;;;;;5033735;28;20489;-62
2021/01/26 12:42:39;;;;;;;15.83;4.63;;;24.40;84.30;;;;;;5033692;28;20443;-62
2021/01/26 12:45:08;;;;;;;18.00;5.87;;;24.40;83.80;;;;;;5033615;28;20824;-62
2021/01/26 12:47:34;;;;;;;19.90;5.30;;;24.40;83.40;;;;;;5034521;28;20449;-62
2021/01/26 12:50:01;;;;;;;10.30;5.67;;;24.40;84.00;;;;;;5033717;28;20484;-61
2021/01/26 12:52:27;;;;;;;17.80;5.13;;;24.40;84.20;;;;;;5033754;28;20452;-61
2021/01/26 12:54:53;;;;;;;16.73;4.80;;;24.40;83.80;;;;;;5033368;28;20476;-62
2021/01/26 12:57:20;;;;;;;15.27;4.90;;;24.40;83.40;;;;;;5033689;28;20444;-62
2021/01/26 12:59:47;;;;;;;17.67;4.40;;;24.40;83.60;;;;;;5033459;28;20449;-61
2021/01/26 13:02:15;;;;;;;15.30;6.17;;;24.40;83.30;;;;;;5033719;28;20448;-61
2021/01/26 13:04:41;;;;;;;22.73;4.97;;;24.40;83.30;;;;;;5033749;28;20515;-62
2021/01/26 13:07:07;;;;;;;11.20;4.50;;;24.40;82.80;;;;;;5033495;28;20453;-61
2021/01/26 13:09:33;;;;;;;17.50;4.37;;;24.40;81.90;;;;;;5033464;28;20442;-62
2021/01/26 13:11:59;;;;;;;13.33;4.50;;;24.40;81.20;;;;;;5033468;28;20824;-62
2021/01/26 13:14:26;;;;;;;9.63;4.23;;;24.30;80.40;;;;;;5033498;28;20835;-61
2021/01/26 13:16:52;;;;;;;10.50;4.10;;;24.30;80.00;;;;;;5033479;28;20800;-62
2021/01/26 13:19:21;;;;;;;17.50;4.77;;;24.30;80.20;;;;;;5033621;28;20483;-61
2021/01/26 13:21:51;;;;;;;9.27;4.40;;;24.30;80.30;;;;;;5034131;28;20498;-61
2021/01/26 13:24:17;;;;;;;15.00;4.10;;;24.30;79.90;;;;;;5033422;28;20444;-62
2021/01/26 13:26:44;;;;;;;10.13;3.50;;;24.30;79.40;;;;;;5032931;28;20858;-61
2021/01/26 13:29:10;;;;;;;6.63;2.73;;;24.30;78.80;;;;;;5033265;28;20440;-61
2021/01/26 13:31:36;;;;;;;8.63;3.00;;;24.30;73.90;;;;;;5033367;28;20449;-61
2021/01/26 13:34:03;;;;;;;6.57;3.07;;;24.20;73.30;;;;;;5033299;28;20472;-61
2021/01/26 13:36:30;;;;;;;7.10;3.57;;;24.20;74.00;;;;;;5033260;28;20451;-61
2021/01/26 13:38:56;;;;;;;7.53;2.73;;;24.20;74.80;;;;;;5033230;28;20447;-60
2021/01/26 13:41:22;;;;;;;8.43;2.70;;;24.20;75.60;;;;;;5033046;28;20542;-61
2021/01/26 13:43:48;;;;;;;8.33;3.33;;;24.20;75.90;;;;;;5033114;28;20444;-61
2021/01/26 13:46:15;;;;;;;10.00;3.70;;;24.20;76.60;;;;;;5033058;28;20457;-62
2021/01/26 13:48:41;;;;;;;6.60;3.10;;;24.20;77.10;;;;;;5033006;28;20444;-61
2021/01/26 13:51:08;;;;;;;5.20;2.60;;;24.20;76.80;;;;;;5032996;28;20509;-61
2021/01/26 13:53:35;;;;;;;5.13;3.50;;;24.20;76.50;;;;;;5033109;28;20451;-61
2021/01/26 13:56:01;;;;;;;4.80;3.30;;;24.20;76.90;;;;;;5035758;28;20460;-61
2021/01/26 13:58:27;;;;;;;7.60;3.47;;;24.20;77.00;;;;;;5036432;28;20443;-61
2021/01/26 14:00:54;;;;;;;5.83;4.93;;;24.20;77.20;;;;;;5036594;28;20484;-61